sensor_id;sensor_type;location;lat;lon;timestamp;temperature;humidity
12977;DHT22;6553;48.412;9.514;2023-07-29T00:01:44;21.40;75.70
12977;DHT22;6553;48.412;9.514;2023-07-29T00:04:11;21.30;75.60
12977;DHT22;6553;48.412;9.514;2023-07-29T00:06:37;21.40;75.70
12977;DHT22;6553;48.412;9.514;2023-07-29T00:09:03;21.30;75.60
12977;DHT22;6553;48.412;9.514;2023-07-29T00:11:28;21.30;75.60
12977;DHT22;6553;48.412;9.514;2023-07-29T00:13:55;21.30;75.60
12977;DHT22;6553;48.412;9.514;2023-07-29T00:16:20;21.30;75.60
12977;DHT22;6553;48.412;9.514;2023-07-29T00:18:49;21.30;75.60
12977;DHT22;6553;48.412;9.514;2023-07-29T00:21:15;21.30;75.60
12977;DHT22;6553;48.412;9.514;2023-07-29T00:23:41;21.30;75.60
12977;DHT22;6553;48.412;9.514;2023-07-29T00:26:06;21.30;75.60
12977;DHT22;6553;48.412;9.514;2023-07-29T00:28:32;21.30;75.60
12977;DHT22;6553;48.412;9.514;2023-07-29T00:30:58;21.30;75.60
12977;DHT22;6553;48.412;9.514;2023-07-29T00:33:24;21.30;75.60
12977;DHT22;6553;48.412;9.514;2023-07-29T00:35:50;21.30;75.70
12977;DHT22;6553;48.412;9.514;2023-07-29T00:38:16;21.30;75.60
12977;DHT22;6553;48.412;9.514;2023-07-29T00:40:43;21.30;76.30
12977;DHT22;6553;48.412;9.514;2023-07-29T00:43:09;21.30;75.60
12977;DHT22;6553;48.412;9.514;2023-07-29T00:45:35;21.30;75.60
12977;DHT22;6553;48.412;9.514;2023-07-29T00:48:02;21.30;75.60
12977;DHT22;6553;48.412;9.514;2023-07-29T00:50:30;21.30;75.70
12977;DHT22;6553;48.412;9.514;2023-07-29T00:52:59;21.30;75.70
12977;DHT22;6553;48.412;9.514;2023-07-29T00:55:26;21.30;75.70
12977;DHT22;6553;48.412;9.514;2023-07-29T00:57:52;21.30;75.70
12977;DHT22;6553;48.412;9.514;2023-07-29T01:00:20;21.30;75.70
12977;DHT22;6553;48.412;9.514;2023-07-29T01:02:47;21.30;75.80
12977;DHT22;6553;48.412;9.514;2023-07-29T01:05:14;21.30;75.70
12977;DHT22;6553;48.412;9.514;2023-07-29T01:07:44;21.30;75.70
12977;DHT22;6553;48.412;9.514;2023-07-29T01:10:31;21.30;75.80
12977;DHT22;6553;48.412;9.514;2023-07-29T01:13:18;21.30;75.80
12977;DHT22;6553;48.412;9.514;2023-07-29T01:16:10;21.30;75.80
12977;DHT22;6553;48.412;9.514;2023-07-29T01:18:42;21.30;75.80
12977;DHT22;6553;48.412;9.514;2023-07-29T01:21:13;21.30;75.80
12977;DHT22;6553;48.412;9.514;2023-07-29T01:23:41;21.30;75.80
12977;DHT22;6553;48.412;9.514;2023-07-29T01:26:06;21.30;75.80
12977;DHT22;6553;48.412;9.514;2023-07-29T01:28:33;21.20;75.80
12977;DHT22;6553;48.412;9.514;2023-07-29T01:31:28;21.30;75.90
12977;DHT22;6553;48.412;9.514;2023-07-29T01:34:13;21.30;75.90
12977;DHT22;6553;48.412;9.514;2023-07-29T01:37:09;21.30;75.90
12977;DHT22;6553;48.412;9.514;2023-07-29T01:39:40;21.30;76.00
12977;DHT22;6553;48.412;9.514;2023-07-29T01:42:08;21.30;76.00
12977;DHT22;6553;48.412;9.514;2023-07-29T01:44:35;21.30;76.00
12977;DHT22;6553;48.412;9.514;2023-07-29T01:47:02;21.30;76.00
12977;DHT22;6553;48.412;9.514;2023-07-29T01:49:27;21.20;75.90
12977;DHT22;6553;48.412;9.514;2023-07-29T01:51:53;21.30;76.00
12977;DHT22;6553;48.412;9.514;2023-07-29T01:54:19;21.30;76.00
12977;DHT22;6553;48.412;9.514;2023-07-29T01:56:45;21.20;75.90
12977;DHT22;6553;48.412;9.514;2023-07-29T01:59:11;21.30;76.00
12977;DHT22;6553;48.412;9.514;2023-07-29T02:01:37;21.30;76.00
12977;DHT22;6553;48.412;9.514;2023-07-29T02:04:03;21.20;76.00
12977;DHT22;6553;48.412;9.514;2023-07-29T02:06:28;21.20;75.90
12977;DHT22;6553;48.412;9.514;2023-07-29T02:08:55;21.30;76.00
12977;DHT22;6553;48.412;9.514;2023-07-29T02:11:21;21.20;75.90
12977;DHT22;6553;48.412;9.514;2023-07-29T02:13:55;21.20;75.90
12977;DHT22;6553;48.412;9.514;2023-07-29T02:16:21;21.20;75.90
12977;DHT22;6553;48.412;9.514;2023-07-29T02:18:48;21.20;75.90
12977;DHT22;6553;48.412;9.514;2023-07-29T02:21:15;21.20;76.00
12977;DHT22;6553;48.412;9.514;2023-07-29T02:23:41;21.20;75.90
12977;DHT22;6553;48.412;9.514;2023-07-29T02:26:07;21.20;75.90
12977;DHT22;6553;48.412;9.514;2023-07-29T02:28:33;21.30;76.00
12977;DHT22;6553;48.412;9.514;2023-07-29T02:31:21;21.20;75.90
12977;DHT22;6553;48.412;9.514;2023-07-29T02:33:48;21.20;75.90
12977;DHT22;6553;48.412;9.514;2023-07-29T02:36:15;21.30;76.00
12977;DHT22;6553;48.412;9.514;2023-07-29T02:38:42;21.30;76.00
12977;DHT22;6553;48.412;9.514;2023-07-29T02:41:09;21.20;75.80
12977;DHT22;6553;48.412;9.514;2023-07-29T02:43:37;21.30;76.00
12977;DHT22;6553;48.412;9.514;2023-07-29T02:46:04;21.20;75.90
12977;DHT22;6553;48.412;9.514;2023-07-29T02:48:30;21.20;75.80
12977;DHT22;6553;48.412;9.514;2023-07-29T02:50:56;21.20;75.70
12977;DHT22;6553;48.412;9.514;2023-07-29T02:53:22;21.20;75.80
12977;DHT22;6553;48.412;9.514;2023-07-29T02:55:48;21.20;75.90
12977;DHT22;6553;48.412;9.514;2023-07-29T02:58:14;21.20;75.80
12977;DHT22;6553;48.412;9.514;2023-07-29T03:00:40;21.20;75.80
12977;DHT22;6553;48.412;9.514;2023-07-29T03:03:09;21.30;75.90
12977;DHT22;6553;48.412;9.514;2023-07-29T03:05:35;21.20;75.70
12977;DHT22;6553;48.412;9.514;2023-07-29T03:08:01;21.20;75.80
12977;DHT22;6553;48.412;9.514;2023-07-29T03:10:27;21.20;75.80
12977;DHT22;6553;48.412;9.514;2023-07-29T03:12:56;21.20;75.80
12977;DHT22;6553;48.412;9.514;2023-07-29T03:15:25;21.20;75.90
12977;DHT22;6553;48.412;9.514;2023-07-29T03:17:52;21.20;75.80
12977;DHT22;6553;48.412;9.514;2023-07-29T03:20:19;21.20;75.90
12977;DHT22;6553;48.412;9.514;2023-07-29T03:22:46;21.20;75.90
12977;DHT22;6553;48.412;9.514;2023-07-29T03:25:13;21.20;75.80
12977;DHT22;6553;48.412;9.514;2023-07-29T03:27:39;21.20;75.80
12977;DHT22;6553;48.412;9.514;2023-07-29T03:30:07;21.20;75.90
12977;DHT22;6553;48.412;9.514;2023-07-29T03:32:33;21.20;75.80
12977;DHT22;6553;48.412;9.514;2023-07-29T03:34:59;21.20;75.80
12977;DHT22;6553;48.412;9.514;2023-07-29T03:37:25;21.20;75.90
12977;DHT22;6553;48.412;9.514;2023-07-29T03:39:51;21.20;75.90
12977;DHT22;6553;48.412;9.514;2023-07-29T03:42:17;21.20;75.90
12977;DHT22;6553;48.412;9.514;2023-07-29T03:44:43;21.20;75.90
12977;DHT22;6553;48.412;9.514;2023-07-29T03:47:09;21.20;75.90
12977;DHT22;6553;48.412;9.514;2023-07-29T03:49:38;21.20;75.90
12977;DHT22;6553;48.412;9.514;2023-07-29T03:52:05;21.20;75.90
12977;DHT22;6553;48.412;9.514;2023-07-29T03:54:31;21.20;75.90
12977;DHT22;6553;48.412;9.514;2023-07-29T03:56:57;21.20;76.00
12977;DHT22;6553;48.412;9.514;2023-07-29T03:59:23;21.20;76.00
12977;DHT22;6553;48.412;9.514;2023-07-29T04:01:49;21.20;76.00
12977;DHT22;6553;48.412;9.514;2023-07-29T04:04:14;21.20;76.00
12977;DHT22;6553;48.412;9.514;2023-07-29T04:06:40;21.20;75.90
12977;DHT22;6553;48.412;9.514;2023-07-29T04:09:06;21.20;76.00
12977;DHT22;6553;48.412;9.514;2023-07-29T04:11:33;21.20;76.00
12977;DHT22;6553;48.412;9.514;2023-07-29T04:13:59;21.20;76.00
12977;DHT22;6553;48.412;9.514;2023-07-29T04:16:25;21.20;76.00
12977;DHT22;6553;48.412;9.514;2023-07-29T04:18:50;21.20;76.00
12977;DHT22;6553;48.412;9.514;2023-07-29T04:21:16;21.20;76.10
12977;DHT22;6553;48.412;9.514;2023-07-29T04:23:42;21.20;76.00
12977;DHT22;6553;48.412;9.514;2023-07-29T04:26:08;21.20;76.00
12977;DHT22;6553;48.412;9.514;2023-07-29T04:28:33;21.20;76.10
12977;DHT22;6553;48.412;9.514;2023-07-29T04:30:59;21.20;76.00
12977;DHT22;6553;48.412;9.514;2023-07-29T04:33:25;21.20;76.00
12977;DHT22;6553;48.412;9.514;2023-07-29T04:35:51;21.20;76.10
12977;DHT22;6553;48.412;9.514;2023-07-29T04:38:16;21.20;76.10
12977;DHT22;6553;48.412;9.514;2023-07-29T04:40:42;21.20;76.10
12977;DHT22;6553;48.412;9.514;2023-07-29T04:43:08;21.20;76.00
12977;DHT22;6553;48.412;9.514;2023-07-29T04:45:34;21.20;76.10
12977;DHT22;6553;48.412;9.514;2023-07-29T04:47:59;21.20;76.10
12977;DHT22;6553;48.412;9.514;2023-07-29T04:50:25;21.20;76.10
12977;DHT22;6553;48.412;9.514;2023-07-29T04:52:51;21.20;76.00
12977;DHT22;6553;48.412;9.514;2023-07-29T04:55:18;21.20;76.10
12977;DHT22;6553;48.412;9.514;2023-07-29T04:57:44;21.20;76.00
12977;DHT22;6553;48.412;9.514;2023-07-29T05:00:10;21.20;76.20
12977;DHT22;6553;48.412;9.514;2023-07-29T05:02:36;21.20;76.20
12977;DHT22;6553;48.412;9.514;2023-07-29T05:05:02;21.20;76.10
12977;DHT22;6553;48.412;9.514;2023-07-29T05:07:28;21.20;76.20
12977;DHT22;6553;48.412;9.514;2023-07-29T05:09:54;21.20;76.20
12977;DHT22;6553;48.412;9.514;2023-07-29T05:12:19;21.20;76.30
12977;DHT22;6553;48.412;9.514;2023-07-29T05:14:45;21.20;76.30
12977;DHT22;6553;48.412;9.514;2023-07-29T05:17:11;21.20;76.40
12977;DHT22;6553;48.412;9.514;2023-07-29T05:19:37;21.20;76.30
12977;DHT22;6553;48.412;9.514;2023-07-29T05:22:02;21.20;76.40
12977;DHT22;6553;48.412;9.514;2023-07-29T05:24:28;21.20;76.30
12977;DHT22;6553;48.412;9.514;2023-07-29T05:26:54;21.20;76.40
12977;DHT22;6553;48.412;9.514;2023-07-29T05:29:20;21.20;76.50
12977;DHT22;6553;48.412;9.514;2023-07-29T05:31:45;21.20;76.40
12977;DHT22;6553;48.412;9.514;2023-07-29T05:34:11;21.20;76.40
12977;DHT22;6553;48.412;9.514;2023-07-29T05:36:37;21.20;76.50
12977;DHT22;6553;48.412;9.514;2023-07-29T05:39:04;21.20;76.60
12977;DHT22;6553;48.412;9.514;2023-07-29T05:41:30;21.20;76.40
12977;DHT22;6553;48.412;9.514;2023-07-29T05:43:56;21.20;76.40
12977;DHT22;6553;48.412;9.514;2023-07-29T05:46:22;21.20;76.50
12977;DHT22;6553;48.412;9.514;2023-07-29T05:48:48;21.20;76.40
12977;DHT22;6553;48.412;9.514;2023-07-29T05:51:14;21.20;76.60
12977;DHT22;6553;48.412;9.514;2023-07-29T05:53:39;21.20;76.60
12977;DHT22;6553;48.412;9.514;2023-07-29T05:56:05;21.20;76.50
12977;DHT22;6553;48.412;9.514;2023-07-29T05:58:31;21.20;76.60
12977;DHT22;6553;48.412;9.514;2023-07-29T06:00:57;21.20;76.60
12977;DHT22;6553;48.412;9.514;2023-07-29T06:03:24;21.20;76.60
12977;DHT22;6553;48.412;9.514;2023-07-29T06:05:51;21.20;76.70
12977;DHT22;6553;48.412;9.514;2023-07-29T06:08:16;21.20;76.80
12977;DHT22;6553;48.412;9.514;2023-07-29T06:10:42;21.20;76.80
12977;DHT22;6553;48.412;9.514;2023-07-29T06:13:08;21.20;76.70
12977;DHT22;6553;48.412;9.514;2023-07-29T06:15:34;21.20;76.90
12977;DHT22;6553;48.412;9.514;2023-07-29T06:17:59;21.20;76.90
12977;DHT22;6553;48.412;9.514;2023-07-29T06:20:26;21.20;76.80
12977;DHT22;6553;48.412;9.514;2023-07-29T06:22:51;21.20;76.90
12977;DHT22;6553;48.412;9.514;2023-07-29T06:25:17;21.20;76.90
12977;DHT22;6553;48.412;9.514;2023-07-29T06:27:43;21.20;76.90
12977;DHT22;6553;48.412;9.514;2023-07-29T06:30:09;21.20;77.00
12977;DHT22;6553;48.412;9.514;2023-07-29T06:32:35;21.20;76.90
12977;DHT22;6553;48.412;9.514;2023-07-29T06:35:01;21.20;77.00
12977;DHT22;6553;48.412;9.514;2023-07-29T06:37:26;21.20;77.10
12977;DHT22;6553;48.412;9.514;2023-07-29T06:39:52;21.20;77.10
12977;DHT22;6553;48.412;9.514;2023-07-29T06:42:18;21.20;77.10
12977;DHT22;6553;48.412;9.514;2023-07-29T06:44:44;21.20;77.20
12977;DHT22;6553;48.412;9.514;2023-07-29T06:47:11;21.20;77.20
12977;DHT22;6553;48.412;9.514;2023-07-29T06:49:37;21.20;77.40
12977;DHT22;6553;48.412;9.514;2023-07-29T06:52:03;21.20;77.30
12977;DHT22;6553;48.412;9.514;2023-07-29T06:54:29;21.20;77.20
12977;DHT22;6553;48.412;9.514;2023-07-29T06:56:54;21.20;77.30
12977;DHT22;6553;48.412;9.514;2023-07-29T06:59:20;21.20;77.60
12977;DHT22;6553;48.412;9.514;2023-07-29T07:01:46;21.20;77.30
12977;DHT22;6553;48.412;9.514;2023-07-29T07:04:12;21.20;77.60
12977;DHT22;6553;48.412;9.514;2023-07-29T07:06:37;21.20;77.60
12977;DHT22;6553;48.412;9.514;2023-07-29T07:09:03;21.20;77.60
12977;DHT22;6553;48.412;9.514;2023-07-29T07:11:29;21.20;77.70
12977;DHT22;6553;48.412;9.514;2023-07-29T07:13:55;21.20;77.80
12977;DHT22;6553;48.412;9.514;2023-07-29T07:16:20;21.20;77.90
12977;DHT22;6553;48.412;9.514;2023-07-29T07:18:46;21.20;77.70
12977;DHT22;6553;48.412;9.514;2023-07-29T07:21:12;21.20;78.00
12977;DHT22;6553;48.412;9.514;2023-07-29T07:23:39;21.20;78.10
12977;DHT22;6553;48.412;9.514;2023-07-29T07:26:05;21.20;77.80
12977;DHT22;6553;48.412;9.514;2023-07-29T07:28:30;21.20;77.90
12977;DHT22;6553;48.412;9.514;2023-07-29T07:30:56;21.20;77.90
12977;DHT22;6553;48.412;9.514;2023-07-29T07:33:22;21.20;77.80
12977;DHT22;6553;48.412;9.514;2023-07-29T07:35:48;21.20;77.90
12977;DHT22;6553;48.412;9.514;2023-07-29T07:38:14;21.20;77.80
12977;DHT22;6553;48.412;9.514;2023-07-29T07:40:39;21.20;77.80
12977;DHT22;6553;48.412;9.514;2023-07-29T07:43:05;21.20;77.80
12977;DHT22;6553;48.412;9.514;2023-07-29T07:45:32;21.20;77.70
12977;DHT22;6553;48.412;9.514;2023-07-29T07:47:58;21.20;77.90
12977;DHT22;6553;48.412;9.514;2023-07-29T07:50:24;21.20;77.60
12977;DHT22;6553;48.412;9.514;2023-07-29T07:52:50;21.20;77.90
12977;DHT22;6553;48.412;9.514;2023-07-29T07:55:15;21.20;78.00
12977;DHT22;6553;48.412;9.514;2023-07-29T07:57:41;21.30;78.10
12977;DHT22;6553;48.412;9.514;2023-07-29T08:00:07;21.20;77.90
12977;DHT22;6553;48.412;9.514;2023-07-29T08:02:43;21.30;78.10
12977;DHT22;6553;48.412;9.514;2023-07-29T08:05:09;21.30;78.80
12977;DHT22;6553;48.412;9.514;2023-07-29T08:07:35;21.30;78.00
12977;DHT22;6553;48.412;9.514;2023-07-29T08:10:01;21.30;78.20
12977;DHT22;6553;48.412;9.514;2023-07-29T08:12:26;21.30;78.20
12977;DHT22;6553;48.412;9.514;2023-07-29T08:14:52;21.30;78.30
12977;DHT22;6553;48.412;9.514;2023-07-29T08:17:18;21.30;78.20
12977;DHT22;6553;48.412;9.514;2023-07-29T08:19:43;21.30;78.20
12977;DHT22;6553;48.412;9.514;2023-07-29T08:22:09;21.30;78.30
12977;DHT22;6553;48.412;9.514;2023-07-29T08:24:35;21.30;78.10
12977;DHT22;6553;48.412;9.514;2023-07-29T08:27:01;21.30;78.10
12977;DHT22;6553;48.412;9.514;2023-07-29T08:29:26;21.30;78.10
12977;DHT22;6553;48.412;9.514;2023-07-29T08:31:52;21.30;78.30
12977;DHT22;6553;48.412;9.514;2023-07-29T08:34:18;21.30;78.20
12977;DHT22;6553;48.412;9.514;2023-07-29T08:36:43;21.30;78.30
12977;DHT22;6553;48.412;9.514;2023-07-29T08:39:09;21.30;78.20
12977;DHT22;6553;48.412;9.514;2023-07-29T08:41:45;21.30;78.20
12977;DHT22;6553;48.412;9.514;2023-07-29T08:44:23;21.30;78.20
12977;DHT22;6553;48.412;9.514;2023-07-29T08:46:52;21.30;78.20
12977;DHT22;6553;48.412;9.514;2023-07-29T08:49:19;21.30;78.20
12977;DHT22;6553;48.412;9.514;2023-07-29T08:51:48;21.30;78.60
12977;DHT22;6553;48.412;9.514;2023-07-29T08:54:16;21.30;78.60
12977;DHT22;6553;48.412;9.514;2023-07-29T08:56:42;21.30;78.70
12977;DHT22;6553;48.412;9.514;2023-07-29T08:59:09;21.40;78.50
12977;DHT22;6553;48.412;9.514;2023-07-29T09:01:37;21.40;78.80
12977;DHT22;6553;48.412;9.514;2023-07-29T09:04:04;21.40;78.70
12977;DHT22;6553;48.412;9.514;2023-07-29T09:06:31;21.40;78.80
12977;DHT22;6553;48.412;9.514;2023-07-29T09:08:59;21.40;78.50
12977;DHT22;6553;48.412;9.514;2023-07-29T09:11:25;21.40;78.70
12977;DHT22;6553;48.412;9.514;2023-07-29T09:13:51;21.40;78.30
12977;DHT22;6553;48.412;9.514;2023-07-29T09:16:19;21.50;78.20
12977;DHT22;6553;48.412;9.514;2023-07-29T09:18:50;21.50;78.40
12977;DHT22;6553;48.412;9.514;2023-07-29T09:21:24;21.50;78.30
12977;DHT22;6553;48.412;9.514;2023-07-29T09:23:54;21.50;78.20
12977;DHT22;6553;48.412;9.514;2023-07-29T09:26:25;21.50;79.00
12977;DHT22;6553;48.412;9.514;2023-07-29T09:28:57;21.50;78.30
12977;DHT22;6553;48.412;9.514;2023-07-29T09:31:25;21.50;78.00
12977;DHT22;6553;48.412;9.514;2023-07-29T09:34:00;21.50;78.80
12977;DHT22;6553;48.412;9.514;2023-07-29T09:36:31;21.50;79.00
12977;DHT22;6553;48.412;9.514;2023-07-29T09:38:58;21.50;78.50
12977;DHT22;6553;48.412;9.514;2023-07-29T09:41:26;21.60;78.40
12977;DHT22;6553;48.412;9.514;2023-07-29T09:44:11;21.50;78.50
12977;DHT22;6553;48.412;9.514;2023-07-29T09:46:37;21.50;78.20
12977;DHT22;6553;48.412;9.514;2023-07-29T09:49:07;21.60;78.40
12977;DHT22;6553;48.412;9.514;2023-07-29T09:51:39;21.60;78.60
12977;DHT22;6553;48.412;9.514;2023-07-29T09:54:06;21.60;78.60
12977;DHT22;6553;48.412;9.514;2023-07-29T09:56:32;21.60;79.20
12977;DHT22;6553;48.412;9.514;2023-07-29T09:58:58;21.60;79.20
12977;DHT22;6553;48.412;9.514;2023-07-29T10:01:24;21.60;79.00
12977;DHT22;6553;48.412;9.514;2023-07-29T10:03:50;21.60;79.10
12977;DHT22;6553;48.412;9.514;2023-07-29T10:06:17;21.60;80.00
12977;DHT22;6553;48.412;9.514;2023-07-29T10:08:44;21.70;81.70
12977;DHT22;6553;48.412;9.514;2023-07-29T10:11:11;21.80;83.50
12977;DHT22;6553;48.412;9.514;2023-07-29T10:13:38;21.70;84.80
12977;DHT22;6553;48.412;9.514;2023-07-29T10:16:04;21.70;85.60
12977;DHT22;6553;48.412;9.514;2023-07-29T10:18:33;21.70;86.30
12977;DHT22;6553;48.412;9.514;2023-07-29T10:21:00;21.80;87.60
12977;DHT22;6553;48.412;9.514;2023-07-29T10:23:30;21.80;88.10
12977;DHT22;6553;48.412;9.514;2023-07-29T10:26:06;21.80;89.70
12977;DHT22;6553;48.412;9.514;2023-07-29T10:28:40;21.80;90.00
12977;DHT22;6553;48.412;9.514;2023-07-29T10:31:10;21.90;90.20
12977;DHT22;6553;48.412;9.514;2023-07-29T10:33:37;21.80;90.50
12977;DHT22;6553;48.412;9.514;2023-07-29T10:36:04;21.90;90.80
12977;DHT22;6553;48.412;9.514;2023-07-29T10:38:30;21.90;91.10
12977;DHT22;6553;48.412;9.514;2023-07-29T10:40:57;21.90;90.60
12977;DHT22;6553;48.412;9.514;2023-07-29T10:43:33;21.90;90.50
12977;DHT22;6553;48.412;9.514;2023-07-29T10:46:18;21.90;90.80
12977;DHT22;6553;48.412;9.514;2023-07-29T10:49:00;21.90;90.80
12977;DHT22;6553;48.412;9.514;2023-07-29T10:51:34;22.00;91.60
12977;DHT22;6553;48.412;9.514;2023-07-29T10:56:41;21.90;91.60
12977;DHT22;6553;48.412;9.514;2023-07-29T11:01:39;22.00;91.70
12977;DHT22;6553;48.412;9.514;2023-07-29T11:07:25;22.00;91.20
12977;DHT22;6553;48.412;9.514;2023-07-29T11:10:00;22.00;91.60
12977;DHT22;6553;48.412;9.514;2023-07-29T11:15:12;22.10;91.50
12977;DHT22;6553;48.412;9.514;2023-07-29T11:17:50;22.00;91.40
12977;DHT22;6553;48.412;9.514;2023-07-29T11:20:27;21.90;91.40
12977;DHT22;6553;48.412;9.514;2023-07-29T11:22:55;21.90;91.30
12977;DHT22;6553;48.412;9.514;2023-07-29T11:25:27;21.90;91.20
12977;DHT22;6553;48.412;9.514;2023-07-29T11:27:56;21.80;91.40
12977;DHT22;6553;48.412;9.514;2023-07-29T11:30:24;21.90;91.00
12977;DHT22;6553;48.412;9.514;2023-07-29T11:32:54;21.80;91.10
12977;DHT22;6553;48.412;9.514;2023-07-29T11:35:21;21.80;91.00
12977;DHT22;6553;48.412;9.514;2023-07-29T11:37:49;21.80;91.10
12977;DHT22;6553;48.412;9.514;2023-07-29T11:40:19;21.80;91.20
12977;DHT22;6553;48.412;9.514;2023-07-29T11:42:46;21.80;91.20
12977;DHT22;6553;48.412;9.514;2023-07-29T11:45:14;21.80;91.20
12977;DHT22;6553;48.412;9.514;2023-07-29T11:47:40;21.80;91.10
12977;DHT22;6553;48.412;9.514;2023-07-29T11:50:09;21.80;90.90
12977;DHT22;6553;48.412;9.514;2023-07-29T11:52:37;21.70;90.90
12977;DHT22;6553;48.412;9.514;2023-07-29T11:55:05;21.80;90.90
12977;DHT22;6553;48.412;9.514;2023-07-29T11:57:34;21.80;90.90
12977;DHT22;6553;48.412;9.514;2023-07-29T12:00:06;21.80;90.80
12977;DHT22;6553;48.412;9.514;2023-07-29T12:02:38;21.80;90.80
12977;DHT22;6553;48.412;9.514;2023-07-29T12:05:05;21.70;90.60
12977;DHT22;6553;48.412;9.514;2023-07-29T12:07:32;21.80;90.60
12977;DHT22;6553;48.412;9.514;2023-07-29T12:10:00;21.80;90.50
12977;DHT22;6553;48.412;9.514;2023-07-29T12:12:26;21.80;90.60
12977;DHT22;6553;48.412;9.514;2023-07-29T12:14:54;21.80;90.40
12977;DHT22;6553;48.412;9.514;2023-07-29T12:17:20;21.80;90.50
12977;DHT22;6553;48.412;9.514;2023-07-29T12:19:46;21.80;90.40
12977;DHT22;6553;48.412;9.514;2023-07-29T12:22:11;21.80;90.40
12977;DHT22;6553;48.412;9.514;2023-07-29T12:24:40;21.80;90.50
12977;DHT22;6553;48.412;9.514;2023-07-29T12:27:10;21.80;90.40
12977;DHT22;6553;48.412;9.514;2023-07-29T12:29:44;21.80;90.30
12977;DHT22;6553;48.412;9.514;2023-07-29T12:32:12;21.80;90.50
12977;DHT22;6553;48.412;9.514;2023-07-29T12:34:38;21.80;90.60
12977;DHT22;6553;48.412;9.514;2023-07-29T12:37:05;21.80;90.40
12977;DHT22;6553;48.412;9.514;2023-07-29T12:39:34;21.80;90.50
12977;DHT22;6553;48.412;9.514;2023-07-29T12:42:02;21.80;90.40
12977;DHT22;6553;48.412;9.514;2023-07-29T12:44:34;21.80;90.30
12977;DHT22;6553;48.412;9.514;2023-07-29T12:47:03;21.80;90.20
12977;DHT22;6553;48.412;9.514;2023-07-29T12:49:31;21.80;90.50
12977;DHT22;6553;48.412;9.514;2023-07-29T12:51:58;21.80;90.10
12977;DHT22;6553;48.412;9.514;2023-07-29T12:54:24;21.80;90.20
12977;DHT22;6553;48.412;9.514;2023-07-29T12:56:50;21.80;90.10
12977;DHT22;6553;48.412;9.514;2023-07-29T12:59:16;21.90;90.20
12977;DHT22;6553;48.412;9.514;2023-07-29T13:01:42;21.80;90.40
12977;DHT22;6553;48.412;9.514;2023-07-29T13:04:09;21.80;90.20
12977;DHT22;6553;48.412;9.514;2023-07-29T13:06:36;21.90;90.20
12977;DHT22;6553;48.412;9.514;2023-07-29T13:09:03;21.80;90.10
12977;DHT22;6553;48.412;9.514;2023-07-29T13:11:30;21.80;90.00
12977;DHT22;6553;48.412;9.514;2023-07-29T13:13:58;21.90;90.00
12977;DHT22;6553;48.412;9.514;2023-07-29T13:16:23;21.90;90.00
12977;DHT22;6553;48.412;9.514;2023-07-29T13:18:49;21.90;89.90
12977;DHT22;6553;48.412;9.514;2023-07-29T13:21:15;21.90;89.80
12977;DHT22;6553;48.412;9.514;2023-07-29T13:23:41;21.90;90.00
12977;DHT22;6553;48.412;9.514;2023-07-29T13:26:06;21.90;89.90
12977;DHT22;6553;48.412;9.514;2023-07-29T13:28:32;21.90;90.00
12977;DHT22;6553;48.412;9.514;2023-07-29T13:30:58;21.90;89.80
12977;DHT22;6553;48.412;9.514;2023-07-29T13:33:24;21.90;89.50
12977;DHT22;6553;48.412;9.514;2023-07-29T13:35:49;21.90;89.60
12977;DHT22;6553;48.412;9.514;2023-07-29T13:38:15;21.90;89.70
12977;DHT22;6553;48.412;9.514;2023-07-29T13:40:41;21.90;89.40
12977;DHT22;6553;48.412;9.514;2023-07-29T13:43:07;21.90;89.50
12977;DHT22;6553;48.412;9.514;2023-07-29T13:45:34;21.90;89.90
12977;DHT22;6553;48.412;9.514;2023-07-29T13:48:00;21.90;89.40
12977;DHT22;6553;48.412;9.514;2023-07-29T13:50:26;21.90;89.50
12977;DHT22;6553;48.412;9.514;2023-07-29T13:52:51;21.90;89.80
12977;DHT22;6553;48.412;9.514;2023-07-29T13:55:17;21.90;89.60
12977;DHT22;6553;48.412;9.514;2023-07-29T13:57:43;21.90;89.50
12977;DHT22;6553;48.412;9.514;2023-07-29T14:00:09;21.90;89.80
12977;DHT22;6553;48.412;9.514;2023-07-29T14:02:37;21.90;89.50
12977;DHT22;6553;48.412;9.514;2023-07-29T14:05:03;21.90;89.80
12977;DHT22;6553;48.412;9.514;2023-07-29T14:07:29;21.90;89.60
12977;DHT22;6553;48.412;9.514;2023-07-29T14:09:55;21.90;89.40
12977;DHT22;6553;48.412;9.514;2023-07-29T14:12:20;21.90;89.30
12977;DHT22;6553;48.412;9.514;2023-07-29T14:14:46;21.90;89.60
12977;DHT22;6553;48.412;9.514;2023-07-29T14:17:12;21.90;89.30
12977;DHT22;6553;48.412;9.514;2023-07-29T14:19:37;21.90;89.20
12977;DHT22;6553;48.412;9.514;2023-07-29T14:22:03;21.90;89.10
12977;DHT22;6553;48.412;9.514;2023-07-29T14:24:29;21.90;88.70
12977;DHT22;6553;48.412;9.514;2023-07-29T14:26:55;21.90;89.00
12977;DHT22;6553;48.412;9.514;2023-07-29T14:29:21;21.90;89.10
12977;DHT22;6553;48.412;9.514;2023-07-29T14:31:47;22.00;89.00
12977;DHT22;6553;48.412;9.514;2023-07-29T14:34:12;21.90;89.10
12977;DHT22;6553;48.412;9.514;2023-07-29T14:36:38;21.90;89.00
12977;DHT22;6553;48.412;9.514;2023-07-29T14:39:04;21.90;89.10
12977;DHT22;6553;48.412;9.514;2023-07-29T14:41:30;21.90;89.00
12977;DHT22;6553;48.412;9.514;2023-07-29T14:43:56;21.90;89.20
12977;DHT22;6553;48.412;9.514;2023-07-29T14:46:22;21.90;89.00
12977;DHT22;6553;48.412;9.514;2023-07-29T14:48:48;21.90;89.20
12977;DHT22;6553;48.412;9.514;2023-07-29T14:51:14;21.90;89.50
12977;DHT22;6553;48.412;9.514;2023-07-29T14:53:40;21.90;89.30
12977;DHT22;6553;48.412;9.514;2023-07-29T14:56:06;21.90;89.20
12977;DHT22;6553;48.412;9.514;2023-07-29T14:58:32;21.90;89.00
12977;DHT22;6553;48.412;9.514;2023-07-29T15:00:58;21.90;89.20
12977;DHT22;6553;48.412;9.514;2023-07-29T15:03:24;21.90;89.20
12977;DHT22;6553;48.412;9.514;2023-07-29T15:05:50;21.90;89.00
12977;DHT22;6553;48.412;9.514;2023-07-29T15:08:16;21.90;89.10
12977;DHT22;6553;48.412;9.514;2023-07-29T15:10:49;21.90;89.50
12977;DHT22;6553;48.412;9.514;2023-07-29T15:13:15;21.90;89.80
12977;DHT22;6553;48.412;9.514;2023-07-29T15:15:42;21.90;89.60
12977;DHT22;6553;48.412;9.514;2023-07-29T15:18:08;21.90;89.20
12977;DHT22;6553;48.412;9.514;2023-07-29T15:20:34;21.90;89.50
12977;DHT22;6553;48.412;9.514;2023-07-29T15:23:00;21.90;89.40
12977;DHT22;6553;48.412;9.514;2023-07-29T15:25:26;21.90;89.10
12977;DHT22;6553;48.412;9.514;2023-07-29T15:27:51;21.90;89.70
12977;DHT22;6553;48.412;9.514;2023-07-29T15:30:17;21.90;89.40
12977;DHT22;6553;48.412;9.514;2023-07-29T15:32:43;21.90;89.60
12977;DHT22;6553;48.412;9.514;2023-07-29T15:35:10;21.90;89.60
12977;DHT22;6553;48.412;9.514;2023-07-29T15:37:37;21.90;89.80
12977;DHT22;6553;48.412;9.514;2023-07-29T15:40:04;21.90;89.90
12977;DHT22;6553;48.412;9.514;2023-07-29T15:42:31;21.90;90.20
12977;DHT22;6553;48.412;9.514;2023-07-29T15:44:57;21.80;90.20
12977;DHT22;6553;48.412;9.514;2023-07-29T15:47:23;21.90;90.30
12977;DHT22;6553;48.412;9.514;2023-07-29T15:49:49;21.90;90.50
12977;DHT22;6553;48.412;9.514;2023-07-29T15:52:14;21.90;90.60
12977;DHT22;6553;48.412;9.514;2023-07-29T15:54:41;21.90;90.70
12977;DHT22;6553;48.412;9.514;2023-07-29T15:57:08;21.90;90.60